Time;durP1;ratioP1;P1;durP2;ratioP2;P2;SDS_P1;SDS_P2;PMS_P1;PMS_P2;Temp;Humidity;BMP_temperature;BMP_pressure;BME280_temperature;BME280_humidity;BME280_pressure;Samples;Min_cycle;Max_cycle;Signal;HPM_P1;HPM_P2
2022/12/27 00:00:09;;;;;;;1.88;1.77;;;;;;;;;;5073839;28;20049;-88
2022/12/27 00:02:36;;;;;;;0.77;0.77;;;;;;;;;;5073853;28;20395;-88
2022/12/27 00:05:02;;;;;;;3.03;2.83;;;;;;;;;;5073582;28;20105;-88
2022/12/27 00:07:29;;;;;;;1.88;1.77;;;;;;;;;;5073850;28;20102;-88
2022/12/27 00:09:57;;;;;;;2.40;1.95;;;;;;;;;;5073346;28;20056;-88
2022/12/27 00:12:24;;;;;;;1.92;1.83;;;;;;;;;;5073516;28;20054;-87
2022/12/27 00:14:51;;;;;;;0.93;0.88;;;;;;;;;;5052143;28;20082;-87
2022/12/27 00:17:17;;;;;;;1.58;1.52;;;;;;;;;;5053398;28;20049;-87
2022/12/27 00:19:43;;;;;;;2.88;2.60;;;;;;;;;;5052543;28;20045;-88
2022/12/27 00:22:10;;;;;;;1.73;1.63;;;;;;;;;;5053406;28;20049;-88
2022/12/27 00:24:36;;;;;;;1.63;1.52;;;;;;;;;;5052883;28;20099;-87
2022/12/27 00:27:04;;;;;;;2.15;1.40;;;;;;;;;;5052795;28;20049;-87
2022/12/27 00:29:31;;;;;;;1.23;1.15;;;;;;;;;;5051943;28;20441;-88
2022/12/27 00:31:57;;;;;;;2.00;1.90;;;;;;;;;;5070041;28;20052;-87
2022/12/27 00:34:24;;;;;;;1.77;1.67;;;;;;;;;;5073181;28;20048;-87
2022/12/27 00:36:50;;;;;;;2.65;2.55;;;;;;;;;;5073097;28;20048;-87
2022/12/27 00:39:17;;;;;;;2.20;2.00;;;;;;;;;;5073031;28;20048;-87
2022/12/27 00:41:43;;;;;;;2.75;2.55;;;;;;;;;;5072817;28;20049;-87
2022/12/27 00:44:11;;;;;;;4.45;3.08;;;;;;;;;;5073080;28;20071;-88
2022/12/27 00:46:38;;;;;;;1.90;1.80;;;;;;;;;;5071995;28;20606;-88
2022/12/27 00:49:04;;;;;;;1.30;1.25;;;;;;;;;;5051804;28;20041;-87
2022/12/27 00:51:30;;;;;;;1.92;1.83;;;;;;;;;;5052303;28;20581;-88
2022/12/27 00:53:57;;;;;;;2.22;2.10;;;;;;;;;;5039145;28;20099;-90
2022/12/27 00:56:25;;;;;;;5.38;2.38;;;;;;;;;;5032684;28;20454;-88
2022/12/27 00:58:52;;;;;;;1.70;1.30;;;;;;;;;;5044482;28;20453;-88
2022/12/27 01:01:22;;;;;;;0.32;0.32;;;;;;;;;;5052127;28;20048;-88
2022/12/27 01:03:48;;;;;;;2.70;2.55;;;;;;;;;;5056699;28;20048;-88
2022/12/27 01:06:16;;;;;;;2.80;2.60;;;;;;;;;;5072309;28;20049;-89
2022/12/27 01:08:43;;;;;;;1.23;1.20;;;;;;;;;;5072340;28;20110;-88
2022/12/27 01:11:10;;;;;;;1.67;1.58;;;;;;;;;;5072524;28;20490;-87
2022/12/27 01:13:37;;;;;;;1.92;1.83;;;;;;;;;;5072616;28;20118;-88
2022/12/27 01:16:08;;;;;;;1.73;1.63;;;;;;;;;;5072821;28;20044;-87
2022/12/27 01:18:36;;;;;;;1.80;1.70;;;;;;;;;;5072576;28;20068;-87
2022/12/27 01:21:04;;;;;;;2.08;1.80;;;;;;;;;;5038538;28;20114;-87
2022/12/27 01:23:31;;;;;;;1.13;1.10;;;;;;;;;;5032416;28;20061;-87
2022/12/27 01:26:01;;;;;;;1.65;1.55;;;;;;;;;;5032293;28;20061;-86
2022/12/27 01:28:27;;;;;;;0.80;0.80;;;;;;;;;;5032674;28;20446;-88
2022/12/27 01:30:54;;;;;;;2.70;2.60;;;;;;;;;;5035507;28;20057;-88
2022/12/27 01:33:20;;;;;;;1.85;1.77;;;;;;;;;;5036111;28;20569;-88
2022/12/27 01:35:48;;;;;;;0.57;0.57;;;;;;;;;;5036352;28;20096;-88
2022/12/27 01:38:15;;;;;;;5.38;3.30;;;;;;;;;;5059629;28;20036;-88
2022/12/27 01:40:41;;;;;;;1.83;1.73;;;;;;;;;;5075674;28;20044;-88
2022/12/27 01:43:11;;;;;;;2.53;2.22;;;;;;;;;;5068145;28;20506;-88
2022/12/27 01:45:38;;;;;;;3.08;2.90;;;;;;;;;;5035901;28;20507;-88
2022/12/27 01:48:07;;;;;;;2.20;2.10;;;;;;;;;;5036010;28;20136;-88
2022/12/27 01:50:34;;;;;;;5.63;1.75;;;;;;;;;;5035959;28;20053;-88
2022/12/27 01:53:06;;;;;;;1.67;1.60;;;;;;;;;;5035794;28;20111;-87
2022/12/27 01:55:35;;;;;;;1.92;1.83;;;;;;;;;;5060087;28;20049;-87
2022/12/27 01:58:04;;;;;;;5.53;5.00;;;;;;;;;;5076008;28;20052;-87
2022/12/27 02:00:31;;;;;;;2.50;2.30;;;;;;;;;;5075715;28;20044;-87
2022/12/27 02:02:58;;;;;;;3.30;2.55;;;;;;;;;;5076014;28;20041;-87
2022/12/27 02:05:25;;;;;;;1.00;1.00;;;;;;;;;;5076058;28;20052;-88
2022/12/27 02:07:57;;;;;;;0.85;0.85;;;;;;;;;;5076049;28;20040;-87
2022/12/27 02:10:25;;;;;;;1.85;1.75;;;;;;;;;;5075837;28;20049;-87
2022/12/27 02:12:52;;;;;;;2.88;2.67;;;;;;;;;;5075576;28;20048;-88
2022/12/27 02:15:18;;;;;;;1.80;1.70;;;;;;;;;;5068670;28;20472;-87
2022/12/27 02:17:45;;;;;;;1.38;1.33;;;;;;;;;;5075501;28;20106;-87
2022/12/27 02:20:13;;;;;;;1.50;1.40;;;;;;;;;;5075356;28;20090;-87
2022/12/27 02:25:47;;;;;;;1.83;1.70;;;;;;;;;;5031242;28;20080;-88
2022/12/27 02:28:17;;;;;;;2.20;2.10;;;;;;;;;;5075637;28;20053;-87
2022/12/27 02:30:46;;;;;;;2.08;1.98;;;;;;;;;;5074799;28;20354;-88
2022/12/27 02:33:16;;;;;;;2.03;1.92;;;;;;;;;;5035197;28;20103;-87
2022/12/27 02:35:44;;;;;;;1.48;1.42;;;;;;;;;;5035178;28;20509;-87
2022/12/27 02:38:13;;;;;;;3.60;3.28;;;;;;;;;;5035769;28;20053;-87
2022/12/27 02:54:51;;;;;;;1.80;1.70;;;;;;;;;;5055255;28;20130;-87
2022/12/27 02:57:21;;;;;;;2.15;2.05;;;;;;;;;;5054659;28;20465;-87
2022/12/27 03:05:42;;;;;;;1.63;1.25;;;;;;;;;;5035859;28;20114;-88
2022/12/27 03:08:11;;;;;;;2.03;1.88;;;;;;;;;;5034905;28;20057;-88
2022/12/27 03:16:20;;;;;;;0.57;0.57;;;;;;;;;;5034739;28;20568;-88
2022/12/27 03:18:56;;;;;;;1.70;1.60;;;;;;;;;;5034689;28;20045;-88
2022/12/27 03:26:58;;;;;;;2.03;1.92;;;;;;;;;;5040151;28;20056;-88
2022/12/27 03:35:03;;;;;;;2.22;2.13;;;;;;;;;;4991618;28;20059;-88
2022/12/27 03:40:18;;;;;;;1.85;1.75;;;;;;;;;;4953856;29;20158;-88
2022/12/27 03:48:15;;;;;;;1.02;1.02;;;;;;;;;;4933095;29;20051;-87
2022/12/27 03:50:46;;;;;;;1.20;1.17;;;;;;;;;;4953814;29;20043;-87
2022/12/27 03:53:15;;;;;;;3.50;1.77;;;;;;;;;;4972033;28;20471;-87
2022/12/27 03:55:42;;;;;;;2.67;2.58;;;;;;;;;;4992638;28;20057;-87
2022/12/27 03:58:09;;;;;;;2.60;2.47;;;;;;;;;;4992187;28;20503;-88
2022/12/27 04:00:35;;;;;;;2.08;1.90;;;;;;;;;;4991964;28;20093;-87
2022/12/27 04:03:02;;;;;;;2.03;1.92;;;;;;;;;;4991768;28;20396;-87
2022/12/27 04:05:28;;;;;;;2.13;2.03;;;;;;;;;;4992336;28;20047;-88
2022/12/27 04:35:17;;;;;;;4.82;4.35;;;;;;;;;;5053005;28;20055;-87
2022/12/27 04:37:43;;;;;;;1.63;1.60;;;;;;;;;;5052929;28;20049;-88
2022/12/27 04:56:38;;;;;;;1.08;1.08;;;;;;;;;;5032906;28;20084;-87
2022/12/27 05:02:03;;;;;;;1.33;1.27;;;;;;;;;;5032580;28;20131;-88
2022/12/27 05:04:30;;;;;;;2.38;2.28;;;;;;;;;;5032272;28;20095;-88
2022/12/27 05:06:57;;;;;;;2.47;2.30;;;;;;;;;;5062632;28;20482;-87
2022/12/27 05:15:08;;;;;;;3.38;2.75;;;;;;;;;;5052452;28;20541;-88
2022/12/27 05:17:35;;;;;;;2.17;2.08;;;;;;;;;;5052598;28;20175;-88
2022/12/27 05:20:01;;;;;;;2.10;2.00;;;;;;;;;;5044574;28;20050;-88
2022/12/27 05:27:56;;;;;;;2.88;2.67;;;;;;;;;;5052383;28;20142;-87
2022/12/27 05:30:23;;;;;;;3.35;3.15;;;;;;;;;;5052284;28;20049;-87
2022/12/27 05:32:49;;;;;;;1.50;1.48;;;;;;;;;;5052403;28;20392;-87
2022/12/27 05:35:16;;;;;;;6.00;4.40;;;;;;;;;;5052276;28;20053;-87
2022/12/27 05:37:42;;;;;;;5.18;2.63;;;;;;;;;;5052137;28;20052;-88
2022/12/27 05:40:10;;;;;;;2.15;1.95;;;;;;;;;;5034172;28;20092;-87
2022/12/27 05:42:36;;;;;;;2.17;2.08;;;;;;;;;;5032529;28;20050;-87
2022/12/27 05:45:05;;;;;;;3.58;2.47;;;;;;;;;;5032263;28;20049;-87
2022/12/27 05:47:31;;;;;;;1.52;1.50;;;;;;;;;;5032520;28;20049;-87
2022/12/27 05:49:58;;;;;;;2.13;2.03;;;;;;;;;;5032082;28;20045;-88
2022/12/27 05:52:24;;;;;;;2.40;2.20;;;;;;;;;;5032085;28;20068;-88
2022/12/27 05:54:51;;;;;;;1.58;1.48;;;;;;;;;;5037284;28;20100;-88
2022/12/27 05:57:18;;;;;;;3.42;3.13;;;;;;;;;;5032505;28;20057;-88
2022/12/27 05:59:44;;;;;;;2.10;2.00;;;;;;;;;;5031870;28;20499;-88
2022/12/27 06:02:12;;;;;;;0.75;0.75;;;;;;;;;;5032460;28;20108;-88
2022/12/27 06:04:38;;;;;;;3.75;2.40;;;;;;;;;;5032469;28;20453;-88
2022/12/27 06:07:05;;;;;;;2.40;2.30;;;;;;;;;;5032141;28;20049;-87
2022/12/27 06:09:31;;;;;;;1.80;1.70;;;;;;;;;;5032256;28;20052;-88
2022/12/27 06:11:58;;;;;;;1.15;1.15;;;;;;;;;;5045852;28;20049;-88
2022/12/27 06:14:24;;;;;;;2.42;2.33;;;;;;;;;;5051684;28;20619;-88
2022/12/27 06:16:51;;;;;;;1.65;1.55;;;;;;;;;;5055155;28;20107;-88
2022/12/27 06:19:19;;;;;;;1.20;1.17;;;;;;;;;;5056043;28;20049;-88
2022/12/27 06:21:45;;;;;;;2.88;2.78;;;;;;;;;;5055645;28;20086;-87
2022/12/27 06:24:11;;;;;;;1.33;1.23;;;;;;;;;;5055381;28;20592;-88
2022/12/27 06:26:38;;;;;;;0.90;0.88;;;;;;;;;;5059357;28;20448;-87
2022/12/27 06:29:04;;;;;;;3.10;2.90;;;;;;;;;;5075491;28;20053;-87
2022/12/27 06:31:31;;;;;;;2.50;2.40;;;;;;;;;;5075331;28;20448;-88
2022/12/27 06:33:57;;;;;;;8.80;2.95;;;;;;;;;;5075337;28;20103;-88
2022/12/27 06:36:26;;;;;;;3.97;3.55;;;;;;;;;;5075054;28;20094;-89
2022/12/27 06:38:53;;;;;;;1.95;1.85;;;;;;;;;;5075028;28;20112;-89
2022/12/27 06:41:19;;;;;;;1.73;1.65;;;;;;;;;;5050169;28;20568;-89
2022/12/27 06:43:46;;;;;;;3.83;3.53;;;;;;;;;;5045749;28;20049;-89
2022/12/27 06:46:13;;;;;;;2.03;1.92;;;;;;;;;;5046307;28;20552;-88
2022/12/27 06:48:40;;;;;;;2.88;2.67;;;;;;;;;;5044133;28;20041;-88
2022/12/27 06:51:07;;;;;;;1.67;1.58;;;;;;;;;;5052244;28;20091;-88
2022/12/27 06:53:36;;;;;;;2.38;2.22;;;;;;;;;;5042356;28;20522;-88
2022/12/27 06:56:03;;;;;;;2.63;2.50;;;;;;;;;;5045438;28;20127;-88
2022/12/27 06:58:29;;;;;;;4.15;2.55;;;;;;;;;;5043395;28;20411;-88
2022/12/27 07:00:56;;;;;;;2.92;2.47;;;;;;;;;;5053577;28;20052;-88
2022/12/27 07:03:22;;;;;;;1.67;1.58;;;;;;;;;;5074650;28;20105;-88
2022/12/27 07:05:49;;;;;;;1.83;1.77;;;;;;;;;;5057628;28;20049;-88
2022/12/27 07:08:15;;;;;;;2.78;2.58;;;;;;;;;;5034650;28;20103;-87
2022/12/27 07:10:43;;;;;;;2.90;2.80;;;;;;;;;;5041654;28;20045;-85
2022/12/27 07:13:10;;;;;;;2.92;2.80;;;;;;;;;;5054497;28;20050;-87
2022/12/27 07:15:38;;;;;;;2.50;2.25;;;;;;;;;;5054425;28;20100;-86
2022/12/27 07:18:04;;;;;;;1.65;1.55;;;;;;;;;;5055151;28;20107;-86
2022/12/27 07:20:31;;;;;;;2.22;2.13;;;;;;;;;;5047538;28;20045;-85
2022/12/27 07:22:58;;;;;;;7.60;4.95;;;;;;;;;;5033930;28;20488;-85
2022/12/27 07:25:25;;;;;;;2.58;2.45;;;;;;;;;;5037910;28;20045;-87
2022/12/27 07:27:53;;;;;;;2.72;2.35;;;;;;;;;;5053135;28;20099;-86
2022/12/27 07:30:19;;;;;;;3.05;2.88;;;;;;;;;;5054087;28;20123;-86
2022/12/27 07:32:46;;;;;;;3.20;3.00;;;;;;;;;;5053954;28;20053;-86
2022/12/27 07:35:12;;;;;;;6.07;4.55;;;;;;;;;;5038996;28;20050;-88
2022/12/27 07:37:39;;;;;;;2.47;2.28;;;;;;;;;;5033423;28;20534;-87
2022/12/27 07:40:06;;;;;;;3.22;2.83;;;;;;;;;;5033802;28;20115;-87
2022/12/27 07:42:32;;;;;;;3.85;2.97;;;;;;;;;;5033791;28;20064;-86
2022/12/27 07:45:00;;;;;;;5.95;5.40;;;;;;;;;;5033813;28;20077;-86
2022/12/27 07:47:27;;;;;;;2.20;2.10;;;;;;;;;;5053220;28;20114;-86
2022/12/27 07:49:53;;;;;;;7.20;4.60;;;;;;;;;;5054189;28;20090;-87
2022/12/27 07:52:20;;;;;;;4.18;3.75;;;;;;;;;;5036518;28;20057;-87
2022/12/27 07:54:46;;;;;;;4.45;4.15;;;;;;;;;;5033466;28;20461;-87
2022/12/27 07:57:13;;;;;;;3.50;3.28;;;;;;;;;;5033595;28;20072;-86
2022/12/27 07:59:39;;;;;;;3.28;3.13;;;;;;;;;;5033251;28;20045;-86
2022/12/27 08:02:08;;;;;;;3.58;3.38;;;;;;;;;;5049321;28;20502;-87
2022/12/27 08:04:37;;;;;;;1.60;1.50;;;;;;;;;;5053327;28;20457;-87
2022/12/27 08:07:05;;;;;;;6.30;5.72;;;;;;;;;;5064693;28;20048;-87
2022/12/27 08:09:33;;;;;;;8.88;5.90;;;;;;;;;;5072703;28;20102;-87
2022/12/27 08:12:00;;;;;;;2.63;2.50;;;;;;;;;;5044350;28;20560;-86
2022/12/27 08:14:26;;;;;;;5.03;4.70;;;;;;;;;;5035146;28;20111;-88
2022/12/27 08:16:53;;;;;;;3.38;3.17;;;;;;;;;;5053010;28;20103;-88
2022/12/27 08:19:20;;;;;;;2.60;2.50;;;;;;;;;;5049540;28;20569;-88
2022/12/27 08:21:47;;;;;;;7.20;6.53;;;;;;;;;;5047609;28;20036;-87
2022/12/27 08:24:13;;;;;;;3.50;3.25;;;;;;;;;;5052412;28;20053;-88
2022/12/27 08:26:40;;;;;;;17.42;6.82;;;;;;;;;;5052386;28;20053;-88
2022/12/27 08:29:07;;;;;;;5.35;4.95;;;;;;;;;;5049525;28;20071;-88
2022/12/27 08:31:33;;;;;;;5.53;5.22;;;;;;;;;;5047418;28;20060;-88
2022/12/27 08:34:00;;;;;;;6.55;4.07;;;;;;;;;;5050571;28;20079;-88
2022/12/27 08:36:28;;;;;;;7.10;6.57;;;;;;;;;;5032797;28;20138;-88
2022/12/27 08:38:55;;;;;;;11.98;7.55;;;;;;;;;;5043346;28;20094;-87
2022/12/27 08:41:21;;;;;;;7.85;4.75;;;;;;;;;;5072104;28;20051;-88
2022/12/27 08:43:48;;;;;;;4.63;4.22;;;;;;;;;;5072463;28;20048;-86
2022/12/27 08:46:14;;;;;;;8.52;5.93;;;;;;;;;;5065886;28;20486;-86
2022/12/27 08:48:41;;;;;;;3.33;3.13;;;;;;;;;;5051346;28;20045;-85
2022/12/27 08:51:08;;;;;;;9.00;5.03;;;;;;;;;;5050306;28;20460;-86
2022/12/27 08:53:36;;;;;;;7.30;6.30;;;;;;;;;;5033774;28;20103;-86
2022/12/27 08:56:02;;;;;;;4.05;3.83;;;;;;;;;;5049629;28;20041;-85
2022/12/27 08:58:29;;;;;;;4.28;3.78;;;;;;;;;;5032545;28;20128;-86
2022/12/27 09:00:55;;;;;;;2.50;2.15;;;;;;;;;;5035122;28;20197;-86
2022/12/27 09:03:22;;;;;;;7.43;3.00;;;;;;;;;;5052339;28;20051;-86
2022/12/27 09:05:49;;;;;;;4.65;4.35;;;;;;;;;;5051997;28;20490;-86
2022/12/27 09:08:16;;;;;;;2.80;2.60;;;;;;;;;;5052151;28;20487;-86
2022/12/27 09:10:43;;;;;;;3.67;2.80;;;;;;;;;;5051945;28;20114;-86
2022/12/27 09:13:10;;;;;;;4.05;3.85;;;;;;;;;;5032251;28;20549;-86
2022/12/27 09:15:37;;;;;;;3.53;3.33;;;;;;;;;;5032454;28;20111;-86
2022/12/27 09:18:03;;;;;;;4.40;3.65;;;;;;;;;;5032391;28;20053;-85
2022/12/27 09:20:30;;;;;;;4.60;4.30;;;;;;;;;;5031928;28;20053;-85
2022/12/27 09:22:58;;;;;;;5.43;2.40;;;;;;;;;;5032111;28;20053;-86
2022/12/27 09:25:24;;;;;;;2.58;2.45;;;;;;;;;;5032356;28;20104;-85
2022/12/27 09:27:52;;;;;;;4.70;4.25;;;;;;;;;;5036166;28;20052;-88
2022/12/27 09:30:20;;;;;;;4.57;4.28;;;;;;;;;;5070278;28;20091;-85
2022/12/27 09:32:46;;;;;;;2.60;2.50;;;;;;;;;;5039204;28;20099;-85
2022/12/27 09:35:12;;;;;;;4.55;4.05;;;;;;;;;;5032003;28;20054;-85
2022/12/27 09:37:39;;;;;;;3.85;3.53;;;;;;;;;;5032094;28;20049;-86
2022/12/27 09:40:07;;;;;;;7.50;6.20;;;;;;;;;;5032409;28;20549;-85
2022/12/27 09:42:40;;;;;;;6.10;5.63;;;;;;;;;;5032048;28;20046;-85
2022/12/27 09:45:13;;;;;;;6.35;5.85;;;;;;;;;;5031937;28;20454;-85
2022/12/27 09:47:46;;;;;;;5.68;5.28;;;;;;;;;;5038266;28;20136;-85
2022/12/27 09:50:15;;;;;;;4.85;4.55;;;;;;;;;;5032252;28;20050;-86
2022/12/27 09:52:43;;;;;;;3.75;3.30;;;;;;;;;;5036170;28;20388;-86
2022/12/27 09:55:12;;;;;;;3.70;3.33;;;;;;;;;;5035862;28;20503;-85
2022/12/27 09:57:40;;;;;;;4.97;4.57;;;;;;;;;;5036035;28;20049;-85
2022/12/27 10:00:13;;;;;;;6.32;5.80;;;;;;;;;;5035887;28;20115;-85
2022/12/27 10:02:40;;;;;;;6.75;6.20;;;;;;;;;;5035978;28;20109;-86
2022/12/27 10:05:09;;;;;;;6.82;5.22;;;;;;;;;;5056782;28;20151;-85
2022/12/27 10:07:42;;;;;;;5.03;4.55;;;;;;;;;;5042571;28;20107;-85
2022/12/27 10:10:13;;;;;;;8.95;7.85;;;;;;;;;;5035579;28;20056;-85
2022/12/27 10:12:40;;;;;;;;;;;;;;;;;;5036019;28;20095;-85
2022/12/27 10:15:13;;;;;;;4.22;3.88;;;;;;;;;;5035517;28;19925;-87
2022/12/27 10:17:47;;;;;;;5.72;5.25;;;;;;;;;;5035717;28;20053;-86
2022/12/27 10:20:18;;;;;;;5.45;3.70;;;;;;;;;;5035556;28;20045;-86
2022/12/27 10:22:48;;;;;;;5.32;4.93;;;;;;;;;;5052105;28;20057;-86
2022/12/27 10:25:16;;;;;;;5.70;5.10;;;;;;;;;;5073609;28;20049;-86
2022/12/27 10:27:42;;;;;;;4.47;4.13;;;;;;;;;;5054987;28;20522;-86
2022/12/27 10:30:14;;;;;;;5.03;4.63;;;;;;;;;;5054606;28;20487;-87
2022/12/27 10:32:40;;;;;;;9.00;8.40;;;;;;;;;;5042884;28;20190;-87
2022/12/27 10:35:07;;;;;;;6.70;6.10;;;;;;;;;;5035406;28;20057;-90
2022/12/27 10:37:33;;;;;;;6.97;6.30;;;;;;;;;;5046699;28;20138;-87
2022/12/27 10:40:04;;;;;;;5.72;4.97;;;;;;;;;;5054355;28;20128;-88
2022/12/27 10:42:34;;;;;;;5.85;5.32;;;;;;;;;;5054762;28;20487;-86
2022/12/27 10:45:19;;;;;;;4.82;4.50;;;;;;;;;;5055362;28;20106;-87
2022/12/27 10:47:46;;;;;;;6.30;5.85;;;;;;;;;;5041996;28;20496;-86
2022/12/27 10:50:13;;;;;;;7.05;6.45;;;;;;;;;;5034629;28;20107;-86
2022/12/27 10:52:40;;;;;;;6.05;4.00;;;;;;;;;;5034543;28;20045;-86
2022/12/27 10:55:29;;;;;;;5.65;5.25;;;;;;;;;;5037955;28;20099;-88
2022/12/27 10:57:56;;;;;;;5.22;4.82;;;;;;;;;;5054766;28;20095;-87
2022/12/27 11:00:23;;;;;;;5.70;3.47;;;;;;;;;;5053955;28;20560;-87
2022/12/27 11:02:51;;;;;;;4.75;4.35;;;;;;;;;;5052691;28;20541;-87
2022/12/27 11:05:21;;;;;;;5.13;3.85;;;;;;;;;;5034095;28;20053;-86
2022/12/27 11:07:47;;;;;;;6.85;6.22;;;;;;;;;;5033815;28;20111;-87
2022/12/27 11:10:15;;;;;;;6.25;5.80;;;;;;;;;;5032518;28;20049;-87
2022/12/27 11:12:54;;;;;;;4.15;3.88;;;;;;;;;;5066865;28;20055;-87
2022/12/27 11:15:20;;;;;;;4.35;4.07;;;;;;;;;;5073594;28;20110;-87
2022/12/27 11:17:48;;;;;;;5.32;4.88;;;;;;;;;;5073538;28;20480;-87
2022/12/27 11:20:21;;;;;;;4.95;4.70;;;;;;;;;;5073814;28;20117;-87
2022/12/27 11:22:50;;;;;;;8.57;7.13;;;;;;;;;;5073448;28;20048;-87
2022/12/27 11:25:17;;;;;;;7.18;6.53;;;;;;;;;;5073665;28;20060;-87
2022/12/27 11:27:45;;;;;;;6.47;5.90;;;;;;;;;;5060816;28;20091;-87
2022/12/27 11:30:21;;;;;;;6.28;4.20;;;;;;;;;;5053434;28;20410;-86
2022/12/27 11:32:47;;;;;;;8.38;7.78;;;;;;;;;;5053601;28;20065;-87
2022/12/27 11:35:16;;;;;;;7.90;7.22;;;;;;;;;;5053310;28;20565;-87
2022/12/27 11:37:44;;;;;;;4.38;4.07;;;;;;;;;;5054657;28;20070;-87
2022/12/27 11:40:13;;;;;;;4.70;4.32;;;;;;;;;;5054320;28;20126;-87
2022/12/27 11:42:42;;;;;;;6.07;5.57;;;;;;;;;;5053552;28;20048;-87
2022/12/27 11:45:12;;;;;;;5.30;5.00;;;;;;;;;;5069967;28;20107;-88
2022/12/27 11:47:41;;;;;;;5.68;5.35;;;;;;;;;;5065177;28;20052;-87
2022/12/27 11:50:35;;;;;;;3.53;3.30;;;;;;;;;;5053489;28;20389;-87
2022/12/27 11:53:12;;;;;;;4.85;4.53;;;;;;;;;;5053138;28;20053;-87
2022/12/27 11:55:59;;;;;;;6.53;5.25;;;;;;;;;;5052697;28;20049;-87
2022/12/27 11:58:41;;;;;;;5.05;4.65;;;;;;;;;;5037343;28;20057;-87
2022/12/27 12:01:19;;;;;;;5.35;4.93;;;;;;;;;;5054423;28;20049;-87
2022/12/27 12:04:02;;;;;;;4.07;3.75;;;;;;;;;;5062041;28;20045;-87
2022/12/27 12:06:34;;;;;;;4.38;4.15;;;;;;;;;;5073241;28;20048;-87
2022/12/27 12:09:22;;;;;;;4.07;3.88;;;;;;;;;;5073081;28;20056;-87
2022/12/27 12:11:56;;;;;;;3.47;3.17;;;;;;;;;;5072939;28;20048;-86
2022/12/27 12:14:34;;;;;;;6.97;6.38;;;;;;;;;;5032936;28;20100;-87
2022/12/27 12:17:22;;;;;;;5.40;4.90;;;;;;;;;;5052665;28;20057;-87
2022/12/27 12:20:18;;;;;;;10.57;5.57;;;;;;;;;;5053480;28;20052;-88
2022/12/27 12:22:55;;;;;;;8.15;6.75;;;;;;;;;;5053434;28;20045;-87
2022/12/27 12:25:21;;;;;;;;;;;;;;;;;;5053644;28;20151;-88
2022/12/27 12:27:57;;;;;;;5.00;4.65;;;;;;;;;;5053053;28;19974;-87
2022/12/27 12:30:39;;;;;;;6.82;5.88;;;;;;;;;;5053389;28;20110;-87
2022/12/27 12:33:11;;;;;;;5.45;5.03;;;;;;;;;;5053742;28;20099;-88
2022/12/27 12:35:46;;;;;;;4.43;4.13;;;;;;;;;;5073318;28;20126;-87
2022/12/27 12:38:19;;;;;;;4.68;4.32;;;;;;;;;;5073327;28;20048;-87
2022/12/27 12:40:52;;;;;;;6.00;5.50;;;;;;;;;;5073366;28;20052;-87
2022/12/27 12:43:30;;;;;;;5.18;4.85;;;;;;;;;;5073005;28;20045;-88
2022/12/27 12:46:01;;;;;;;6.22;5.68;;;;;;;;;;5073067;28;20114;-88
2022/12/27 12:48:44;;;;;;;6.47;5.63;;;;;;;;;;5061069;28;20103;-88
2022/12/27 12:51:20;;;;;;;6.95;6.43;;;;;;;;;;5052310;28;20202;-88
2022/12/27 12:53:57;;;;;;;7.03;6.35;;;;;;;;;;5052531;28;20465;-87
2022/12/27 12:56:32;;;;;;;4.65;4.03;;;;;;;;;;5052875;28;20117;-87
2022/12/27 12:59:05;;;;;;;3.35;3.15;;;;;;;;;;5052954;28;20048;-89
2022/12/27 13:01:41;;;;;;;4.78;4.38;;;;;;;;;;5054090;28;20100;-86
2022/12/27 13:04:12;;;;;;;6.68;4.43;;;;;;;;;;5032457;28;20548;-87
2022/12/27 13:06:50;;;;;;;5.53;5.03;;;;;;;;;;5032562;28;20465;-87
2022/12/27 13:09:22;;;;;;;5.20;4.55;;;;;;;;;;5032487;28;20542;-88
2022/12/27 13:11:54;;;;;;;5.03;4.63;;;;;;;;;;5032496;28;20049;-87
2022/12/27 13:14:34;;;;;;;4.97;4.63;;;;;;;;;;5032887;28;20107;-87
2022/12/27 13:17:02;;;;;;;3.63;3.42;;;;;;;;;;5032782;28;20186;-86
2022/12/27 13:19:41;;;;;;;6.00;5.55;;;;;;;;;;5041288;28;20056;-87
2022/12/27 13:22:14;;;;;;;4.88;4.55;;;;;;;;;;5032528;28;20107;-88
2022/12/27 13:24:45;;;;;;;6.75;6.22;;;;;;;;;;5031900;28;20111;-86
2022/12/27 13:27:20;;;;;;;5.03;4.53;;;;;;;;;;5032266;28;20493;-87
2022/12/27 13:29:57;;;;;;;6.60;6.03;;;;;;;;;;5032330;28;20049;-87
2022/12/27 13:32:31;;;;;;;5.53;4.95;;;;;;;;;;5032357;28;20058;-87
2022/12/27 13:35:01;;;;;;;7.22;5.82;;;;;;;;;;5032490;28;20057;-85
2022/12/27 13:37:38;;;;;;;7.68;6.95;;;;;;;;;;5052732;28;20098;-85
2022/12/27 13:40:22;;;;;;;18.08;6.97;;;;;;;;;;5051896;28;20144;-85
2022/12/27 13:43:05;;;;;;;6.95;6.45;;;;;;;;;;5048824;28;20042;-86
2022/12/27 13:45:45;;;;;;;6.32;4.28;;;;;;;;;;5031887;28;20065;-85
2022/12/27 13:48:19;;;;;;;6.72;6.10;;;;;;;;;;5037587;28;20045;-86
2022/12/27 13:51:12;;;;;;;5.63;5.05;;;;;;;;;;5051997;28;20052;-85
2022/12/27 13:54:03;;;;;;;5.43;4.78;;;;;;;;;;5052380;28;20041;-86
2022/12/27 13:56:34;;;;;;;6.00;5.45;;;;;;;;;;5031926;28;20061;-86
2022/12/27 13:59:13;;;;;;;6.38;5.80;;;;;;;;;;5041550;28;20474;-86
2022/12/27 14:02:01;;;;;;;6.45;5.75;;;;;;;;;;5039525;28;20131;-86
2022/12/27 14:04:42;;;;;;;10.13;9.52;;;;;;;;;;5052019;28;20045;-86
2022/12/27 14:07:17;;;;;;;5.28;4.70;;;;;;;;;;5051918;28;20135;-86
2022/12/27 14:09:59;;;;;;;9.23;8.48;;;;;;;;;;5044914;28;20096;-87
2022/12/27 14:12:37;;;;;;;9.20;4.80;;;;;;;;;;5039917;28;20049;-86
2022/12/27 14:15:05;;;;;;;6.63;6.07;;;;;;;;;;5033888;28;20049;-86
2022/12/27 14:17:37;;;;;;;4.22;3.92;;;;;;;;;;5031649;28;20470;-86
2022/12/27 14:20:15;;;;;;;5.70;5.20;;;;;;;;;;5031521;28;20088;-86
2022/12/27 14:22:51;;;;;;;4.90;4.50;;;;;;;;;;5031735;28;20049;-86
2022/12/27 14:25:38;;;;;;;6.15;5.53;;;;;;;;;;5033745;28;20100;-86
2022/12/27 14:28:24;;;;;;;6.45;6.00;;;;;;;;;;5053461;28;21257;-86
2022/12/27 14:31:12;;;;;;;6.32;5.93;;;;;;;;;;5050919;28;20088;-86
2022/12/27 14:33:53;;;;;;;7.63;6.93;;;;;;;;;;5051493;28;20107;-86
2022/12/27 14:36:35;;;;;;;6.05;5.55;;;;;;;;;;5046760;28;20057;-86
2022/12/27 14:39:35;;;;;;;7.43;6.72;;;;;;;;;;5053391;28;20053;-88
2022/12/27 14:42:17;;;;;;;5.38;4.93;;;;;;;;;;5034860;28;20080;-86
2022/12/27 14:45:10;;;;;;;6.10;5.60;;;;;;;;;;5049829;28;20045;-86
2022/12/27 14:47:54;;;;;;;6.63;6.00;;;;;;;;;;5028431;28;20057;-86
2022/12/27 14:50:36;;;;;;;3.20;2.97;;;;;;;;;;5012152;28;20064;-86
2022/12/27 14:53:20;;;;;;;3.55;3.20;;;;;;;;;;5013457;28;20054;-86
2022/12/27 14:55:54;;;;;;;7.32;6.55;;;;;;;;;;5032731;28;20053;-86
2022/12/27 14:58:27;;;;;;;5.47;3.88;;;;;;;;;;5032088;28;20049;-85
2022/12/27 15:01:01;;;;;;;9.60;4.35;;;;;;;;;;5032076;28;20115;-86
2022/12/27 15:03:33;;;;;;;4.10;3.88;;;;;;;;;;5022843;28;20045;-86
2022/12/27 15:06:03;;;;;;;4.88;4.57;;;;;;;;;;5031679;28;20053;-85
2022/12/27 15:08:40;;;;;;;6.47;5.57;;;;;;;;;;5032330;28;20071;-86
2022/12/27 15:11:07;;;;;;;;;;;;;;;;;;5032527;28;20067;-86
2022/12/27 15:13:44;;;;;;;5.03;4.45;;;;;;;;;;5028008;28;19971;-85
2022/12/27 15:16:14;;;;;;;6.97;6.50;;;;;;;;;;5012199;28;20049;-86
2022/12/27 15:18:49;;;;;;;7.95;7.30;;;;;;;;;;5015072;28;20111;-85
2022/12/27 15:21:21;;;;;;;5.25;4.85;;;;;;;;;;5012142;28;20050;-85
2022/12/27 15:23:51;;;;;;;5.75;5.22;;;;;;;;;;5044785;28;20049;-85
2022/12/27 15:26:22;;;;;;;6.72;6.25;;;;;;;;;;5043785;28;20516;-85
2022/12/27 15:28:55;;;;;;;6.10;5.50;;;;;;;;;;5056050;28;20050;-86
2022/12/27 15:31:26;;;;;;;4.95;4.63;;;;;;;;;;5036629;28;20110;-86
2022/12/27 15:33:57;;;;;;;6.40;5.90;;;;;;;;;;5033639;28;20057;-86
2022/12/27 15:36:36;;;;;;;6.53;5.93;;;;;;;;;;5054011;28;20049;-85
2022/12/27 15:39:02;;;;;;;5.32;4.35;;;;;;;;;;5046765;28;20483;-86
2022/12/27 15:41:36;;;;;;;2.92;2.67;;;;;;;;;;5033940;28;20498;-86
2022/12/27 15:44:12;;;;;;;6.07;3.90;;;;;;;;;;5034413;28;20128;-86
2022/12/27 15:46:53;;;;;;;8.23;6.40;;;;;;;;;;5034229;28;20053;-85
2022/12/27 15:49:35;;;;;;;4.32;4.03;;;;;;;;;;4989922;28;20115;-85
2022/12/27 15:52:03;;;;;;;6.43;5.20;;;;;;;;;;5040837;28;20102;-87
2022/12/27 15:54:39;;;;;;;10.05;5.88;;;;;;;;;;5043937;28;20050;-85
2022/12/27 15:57:32;;;;;;;6.07;5.68;;;;;;;;;;5033528;28;20053;-86
2022/12/27 16:00:13;;;;;;;6.70;6.30;;;;;;;;;;4985562;28;20046;-87
2022/12/27 16:02:50;;;;;;;5.85;4.72;;;;;;;;;;4992339;28;20050;-86
2022/12/27 16:05:32;;;;;;;7.88;7.22;;;;;;;;;;4992081;28;20070;-86
2022/12/27 16:08:13;;;;;;;7.47;6.88;;;;;;;;;;4991432;28;20054;-86
2022/12/27 16:10:48;;;;;;;6.30;3.55;;;;;;;;;;4990109;28;20050;-85
2022/12/27 16:13:33;;;;;;;4.78;4.47;;;;;;;;;;4991731;28;20097;-86
2022/12/27 16:16:02;;;;;;;4.60;2.70;;;;;;;;;;4991996;28;20050;-86
2022/12/27 16:18:43;;;;;;;8.55;6.13;;;;;;;;;;4991677;28;20057;-86
2022/12/27 16:21:12;;;;;;;3.58;3.33;;;;;;;;;;4988932;28;20073;-86
2022/12/27 16:23:42;;;;;;;6.85;4.38;;;;;;;;;;4991695;28;20062;-85
2022/12/27 16:26:11;;;;;;;5.65;5.25;;;;;;;;;;4995781;28;20042;-87
2022/12/27 16:28:39;;;;;;;8.75;6.90;;;;;;;;;;5011263;28;20491;-86
2022/12/27 16:31:11;;;;;;;7.32;5.72;;;;;;;;;;5011137;28;20054;-86
2022/12/27 16:33:39;;;;;;;8.27;5.40;;;;;;;;;;5010661;28;20054;-86
2022/12/27 16:36:21;;;;;;;3.67;3.08;;;;;;;;;;5049359;28;20418;-86
2022/12/27 16:38:53;;;;;;;2.58;2.47;;;;;;;;;;5072244;28;20093;-88
2022/12/27 16:41:28;;;;;;;3.47;3.15;;;;;;;;;;5072939;28;20114;-86
2022/12/27 16:44:03;;;;;;;3.25;3.05;;;;;;;;;;5054922;28;20099;-86
2022/12/27 16:46:47;;;;;;;2.88;2.65;;;;;;;;;;5053125;28;20044;-85
2022/12/27 16:49:25;;;;;;;2.95;2.55;;;;;;;;;;5052959;28;20045;-86